Airfield :







YOU CAN JOIN US ON...

 
LOGIN :

Register | Disclaimer

   EN    FR    IT 

 









Legend :    VFR   Marginal VFR   IFR   Intensive IFR   Very Intensive IFR
Visi :
Ceiling :
>= 8 km
>= 3000ft
5 to 8 km
1000 to 3000 ft
1500m to 5 km
500 to 1000 ft
800 to 1500m
200 to 500 ft
< 800m
< 200 ft
Symbols :   Thunderstorms  Fog  Heavy snow  Heavy precipitations  Wind > 20 kt






- Airport Elevation : 74 ft
- IATA code : STX


TISX - Henri E Rohlsen

CURRENT METAR :
  • 040053Z 06005KT 10SM SCT037 24/19 A3002 RMK AO2 SLP164 T02440189

EXPIRED METARs :
  • 032353Z 04003KT 10SM SCT025 24/19 A3000 RMK AO2 SLP159 T02390194 10294 20239 51017
  • 032253Z 02003KT 10SM SCT027 SCT034 24/20 A2999 RMK AO2 SLP154 T02440200

TAF TISX
Valid from the 04 at 00:00 until the 05 at 00:00 UTC


032340Z 0400/0424 VRB05KT P6SM SCT025 SCT050
FM040600 02004KT P6SM VCSH SCT030
FM041400 07014KT P6SM FEW025 SCT035
FM042200 06010KT P6SM VCSH SCT025
TJZS FIR / North America



MET'MAP, your aeronautical weather chart ! - Copyright ORBIFLY December 2007 - Disclaimer

ORBIFLY MET'MAP TEAM :

Programming & Development : Alexandra Zaïnal
Concept & original design : Baudouin d'Aumeries
Assistance for programming : Marc-Olivier Méhu
Technical & hardware support : Manuel Goepfert

Contact : metmap@orbifly.com




SOURCES & CREDITS :

   NOAA